createdAt,value
2018-05-18T00:01:26.458Z,21.13
2018-05-18T00:03:37.614Z,19.80
2018-05-18T00:05:48.814Z,19.27
2018-05-18T00:07:59.860Z,19.33
2018-05-18T00:10:10.995Z,19.20
2018-05-18T00:12:22.063Z,19.53
2018-05-18T00:14:33.151Z,21.17
2018-05-18T00:16:44.221Z,22.50
2018-05-18T00:18:55.351Z,17.87
2018-05-18T00:21:06.454Z,20.97
2018-05-18T00:23:17.608Z,20.50
2018-05-18T00:25:28.815Z,19.83
2018-05-18T00:27:39.902Z,18.70
2018-05-18T00:29:50.962Z,19.40
2018-05-18T00:32:02.058Z,17.07
2018-05-18T00:34:13.147Z,18.63
2018-05-18T00:36:24.228Z,19.33
2018-05-18T00:38:35.408Z,17.40
2018-05-18T00:40:46.589Z,19.47
2018-05-18T00:42:58.022Z,17.03
2018-05-18T00:45:09.129Z,20.40
2018-05-18T00:47:20.203Z,19.07
2018-05-18T00:49:31.303Z,18.23
2018-05-18T00:51:42.381Z,15.47
2018-05-18T00:53:53.503Z,15.07
2018-05-18T00:56:04.583Z,13.10
2018-05-18T00:58:15.669Z,15.10
2018-05-18T01:00:26.835Z,13.73
2018-05-18T01:02:37.924Z,17.27
2018-05-18T01:04:49.063Z,17.87
2018-05-18T01:07:00.124Z,16.80
2018-05-18T01:09:11.271Z,19.57
2018-05-18T01:11:22.301Z,18.77
2018-05-18T01:13:33.358Z,17.53
2018-05-18T01:15:44.441Z,15.87
2018-05-18T01:17:55.539Z,14.77
2018-05-18T01:20:06.638Z,14.97
2018-05-18T01:22:17.871Z,15.63
2018-05-18T01:24:29.105Z,14.60
2018-05-18T01:26:40.183Z,14.30
2018-05-18T01:28:51.259Z,14.00
2018-05-18T01:31:02.305Z,14.53
2018-05-18T01:33:13.416Z,13.97
2018-05-18T01:35:24.501Z,15.47
2018-05-18T01:37:35.599Z,14.67
2018-05-18T01:39:46.724Z,14.47
2018-05-18T01:41:57.802Z,15.00
2018-05-18T01:44:08.906Z,14.37
2018-05-18T01:46:19.975Z,13.03
2018-05-18T01:48:31.053Z,14.60
2018-05-18T01:50:42.232Z,14.50
2018-05-18T01:52:53.330Z,13.30
2018-05-18T01:55:04.404Z,13.67
2018-05-18T01:57:15.526Z,14.53
2018-05-18T01:59:26.619Z,13.73
2018-05-18T02:01:37.731Z,13.30
2018-05-18T02:03:48.811Z,14.30
2018-05-18T02:05:59.888Z,16.17
2018-05-18T02:08:10.959Z,14.00
2018-05-18T02:10:22.058Z,12.63
2018-05-18T02:12:33.250Z,12.33
2018-05-18T02:14:44.364Z,12.73
2018-05-18T02:16:55.454Z,12.17
2018-05-18T02:19:06.574Z,13.73
2018-05-18T02:21:17.850Z,13.60
2018-05-18T02:23:28.898Z,13.97
2018-05-18T02:25:40.013Z,11.33
2018-05-18T02:27:51.079Z,15.20
2018-05-18T02:30:02.110Z,13.03
2018-05-18T02:32:13.279Z,14.57
2018-05-18T02:34:24.337Z,13.43
2018-05-18T02:36:35.561Z,14.20
2018-05-18T02:38:46.613Z,11.53
2018-05-18T02:40:57.667Z,12.97
2018-05-18T02:43:08.766Z,13.60
2018-05-18T02:45:19.880Z,11.93
2018-05-18T02:47:30.986Z,13.63
2018-05-18T02:49:42.114Z,14.37
2018-05-18T02:51:53.295Z,14.33
2018-05-18T02:54:04.335Z,14.30
2018-05-18T02:56:15.420Z,15.03
2018-05-18T02:58:26.489Z,13.73
2018-05-18T03:00:37.626Z,12.70
2018-05-18T03:02:48.709Z,12.87
2018-05-18T03:04:59.876Z,13.27
2018-05-18T03:07:10.974Z,11.03
2018-05-18T03:09:22.122Z,13.07
2018-05-18T03:11:33.206Z,12.13
2018-05-18T03:13:44.277Z,12.70
2018-05-18T03:15:55.317Z,11.17
2018-05-18T03:18:06.399Z,9.20
2018-05-18T03:20:17.468Z,10.67
2018-05-18T03:22:28.525Z,9.53
2018-05-18T03:24:39.651Z,12.67
2018-05-18T03:26:50.763Z,13.30
2018-05-18T03:29:01.927Z,12.03
2018-05-18T03:31:13.105Z,10.27
2018-05-18T03:33:24.106Z,11.20
2018-05-18T03:35:35.181Z,13.17
2018-05-18T03:37:46.255Z,12.43
2018-05-18T03:39:57.349Z,11.77
2018-05-18T03:42:08.486Z,12.10
2018-05-18T03:44:19.626Z,12.47
2018-05-18T03:46:30.658Z,12.63
2018-05-18T03:48:41.860Z,13.00
2018-05-18T03:50:52.916Z,11.73
2018-05-18T03:53:04.011Z,12.43
2018-05-18T03:55:15.082Z,12.27
2018-05-18T03:57:26.137Z,9.07
2018-05-18T03:59:37.337Z,11.87
2018-05-18T04:02:00.557Z,11.60
2018-05-18T04:04:23.782Z,10.33
2018-05-18T04:06:47.129Z,12.07
2018-05-18T04:08:58.307Z,12.80
2018-05-18T04:11:09.459Z,11.57
2018-05-18T04:13:20.508Z,11.93
2018-05-18T04:15:31.609Z,12.17
2018-05-18T04:17:42.656Z,13.03
2018-05-18T04:19:53.823Z,11.17
2018-05-18T04:22:04.944Z,12.03
2018-05-18T04:24:16.067Z,11.73
2018-05-18T04:26:27.126Z,11.37
2018-05-18T04:28:38.219Z,9.57
2018-05-18T04:30:49.317Z,10.00
2018-05-18T04:33:00.426Z,12.07
2018-05-18T04:35:11.493Z,11.97
2018-05-18T04:37:22.621Z,12.30
2018-05-18T04:39:33.835Z,11.77
2018-05-18T04:41:44.986Z,12.77
2018-05-18T04:43:56.063Z,11.07
2018-05-18T04:46:07.246Z,12.03
2018-05-18T04:48:18.422Z,11.33
2018-05-18T04:50:29.491Z,13.83
2018-05-18T04:52:40.587Z,14.50
2018-05-18T04:54:51.665Z,11.13
2018-05-18T04:57:02.765Z,11.60
2018-05-18T04:59:13.911Z,11.30
2018-05-18T05:01:24.963Z,11.30
2018-05-18T05:03:36.111Z,8.97
2018-05-18T05:05:47.166Z,9.70
2018-05-18T05:07:58.285Z,10.90
2018-05-18T05:10:09.403Z,10.63
2018-05-18T05:12:20.495Z,9.17
2018-05-18T05:14:31.647Z,9.80
2018-05-18T05:16:42.738Z,8.60
2018-05-18T05:18:53.925Z,10.03
2018-05-18T05:21:05.005Z,7.50
2018-05-18T05:23:16.195Z,8.20
2018-05-18T05:25:27.307Z,7.40
2018-05-18T05:27:38.373Z,10.53
2018-05-18T05:29:49.473Z,8.93
2018-05-18T05:32:00.546Z,7.37
2018-05-18T05:34:11.659Z,11.60
2018-05-18T05:36:22.825Z,9.10
2018-05-18T05:38:33.943Z,7.80
2018-05-18T05:40:45.048Z,9.03
2018-05-18T05:42:56.247Z,8.37
2018-05-18T05:45:07.333Z,8.47
2018-05-18T05:47:18.422Z,9.73
2018-05-18T05:49:29.542Z,10.83
2018-05-18T05:51:40.654Z,11.53
2018-05-18T05:53:51.732Z,9.73
2018-05-18T05:56:02.903Z,11.13
2018-05-18T05:58:14.210Z,9.87
2018-05-18T06:00:25.348Z,12.40
2018-05-18T06:02:37.461Z,13.23
2018-05-18T06:04:48.654Z,12.67
2018-05-18T06:06:59.837Z,13.57
2018-05-18T06:09:10.918Z,11.90
2018-05-18T06:11:22.078Z,9.93
2018-05-18T06:13:33.159Z,10.83
2018-05-18T06:15:44.391Z,12.80
2018-05-18T06:17:55.461Z,12.50
2018-05-18T06:20:06.578Z,13.90
2018-05-18T06:22:17.670Z,13.73
2018-05-18T06:24:28.754Z,11.50
2018-05-18T06:26:39.959Z,12.77
2018-05-18T06:28:51.152Z,11.27
2018-05-18T06:31:02.187Z,10.87
2018-05-18T06:33:13.268Z,13.07
2018-05-18T06:35:24.347Z,12.70
2018-05-18T06:37:35.474Z,10.70
2018-05-18T06:39:46.557Z,10.83
2018-05-18T06:41:57.660Z,11.37
2018-05-18T06:44:08.751Z,9.97
2018-05-18T06:46:20.054Z,11.90
2018-05-18T06:48:31.163Z,11.73
2018-05-18T06:50:42.298Z,10.90
2018-05-18T06:52:53.423Z,9.87
2018-05-18T06:55:04.581Z,11.90
2018-05-18T06:57:15.696Z,11.00
2018-05-18T06:59:26.748Z,11.47
2018-05-18T07:01:37.805Z,12.70
2018-05-18T07:03:48.941Z,11.97
2018-05-18T07:06:00.054Z,11.83
2018-05-18T07:08:11.230Z,11.70
2018-05-18T07:10:22.334Z,11.33
2018-05-18T07:12:33.456Z,12.90
2018-05-18T07:14:44.628Z,12.00
2018-05-18T07:16:55.728Z,11.83
2018-05-18T07:19:06.855Z,12.73
2018-05-18T07:21:17.933Z,11.60
2018-05-18T07:23:29.025Z,12.30
2018-05-18T07:25:40.159Z,12.20
2018-05-18T07:27:51.310Z,12.33
2018-05-18T07:30:02.544Z,11.93
2018-05-18T07:32:13.590Z,12.93
2018-05-18T07:34:24.810Z,11.93
2018-05-18T07:36:35.898Z,12.80
2018-05-18T07:38:46.989Z,11.97
2018-05-18T07:40:58.064Z,13.90
2018-05-18T07:43:09.183Z,10.80
2018-05-18T07:45:20.295Z,13.93
2018-05-18T07:47:31.482Z,13.30
2018-05-18T07:49:42.671Z,12.40
2018-05-18T07:51:53.684Z,11.53
2018-05-18T07:54:04.737Z,10.70
2018-05-18T07:56:15.850Z,11.27
2018-05-18T07:58:26.926Z,11.53
2018-05-18T08:00:38.022Z,11.83
2018-05-18T08:02:49.158Z,12.00
2018-05-18T08:05:00.327Z,11.63
2018-05-18T08:07:11.546Z,12.27
2018-05-18T08:09:22.655Z,11.60
2018-05-18T08:11:33.766Z,11.47
2018-05-18T08:13:44.854Z,11.57
2018-05-18T08:15:55.943Z,12.10
2018-05-18T08:18:07.024Z,7.87
2018-05-18T08:20:18.075Z,9.17
2018-05-18T08:22:29.175Z,10.87
2018-05-18T08:24:40.419Z,9.77
2018-05-18T08:27:03.675Z,11.37
2018-05-18T08:29:27.102Z,13.13
2018-05-18T08:31:38.194Z,11.40
2018-05-18T08:33:49.267Z,11.27
2018-05-18T08:36:00.357Z,10.63
2018-05-18T08:38:11.477Z,9.80
2018-05-18T08:40:22.663Z,10.17
2018-05-18T08:42:33.799Z,10.63
2018-05-18T08:44:44.832Z,10.40
2018-05-18T08:46:55.951Z,10.70
2018-05-18T08:49:07.030Z,10.70
2018-05-18T08:51:18.136Z,10.97
2018-05-18T08:53:29.192Z,9.80
2018-05-18T08:55:40.354Z,8.77
2018-05-18T08:57:51.470Z,10.70
2018-05-18T09:00:02.598Z,10.00
2018-05-18T09:02:13.678Z,9.67
2018-05-18T09:04:24.740Z,9.23
2018-05-18T09:06:35.798Z,10.03
2018-05-18T09:08:46.960Z,10.23
2018-05-18T09:10:58.068Z,10.17
2018-05-18T09:13:09.218Z,9.90
2018-05-18T09:15:20.299Z,8.80
2018-05-18T09:17:31.410Z,9.03
2018-05-18T09:19:42.494Z,9.23
2018-05-18T09:21:53.566Z,9.20
2018-05-18T09:24:04.636Z,9.07
2018-05-18T09:26:15.745Z,8.20
2018-05-18T09:28:26.858Z,9.33
2018-05-18T09:30:37.937Z,8.87
2018-05-18T09:32:49.002Z,8.27
2018-05-18T09:35:00.141Z,8.70
2018-05-18T09:37:11.322Z,9.07
2018-05-18T09:39:22.402Z,7.73
2018-05-18T09:41:33.487Z,8.97
2018-05-18T09:43:44.574Z,9.53
2018-05-18T09:45:55.666Z,9.23
2018-05-18T09:48:06.754Z,9.57
2018-05-18T09:50:17.846Z,8.87
2018-05-18T09:52:28.922Z,9.07
2018-05-18T09:54:40.102Z,9.40
2018-05-18T09:56:51.094Z,10.73
2018-05-18T09:59:02.139Z,9.53
2018-05-18T10:01:13.210Z,9.07
2018-05-18T10:03:24.301Z,8.83
2018-05-18T10:05:35.481Z,8.57
2018-05-18T10:07:46.684Z,9.50
2018-05-18T10:09:57.874Z,10.20
2018-05-18T10:12:09.054Z,8.70
2018-05-18T10:14:20.149Z,7.47
2018-05-18T10:16:31.357Z,9.10
2018-05-18T10:18:42.618Z,10.63
2018-05-18T10:20:53.563Z,9.80
2018-05-18T10:23:04.655Z,8.53
2018-05-18T10:25:15.783Z,9.43
2018-05-18T10:27:26.894Z,9.30
2018-05-18T10:29:37.982Z,8.93
2018-05-18T10:31:49.172Z,7.77
2018-05-18T10:34:00.286Z,6.90
2018-05-18T10:36:12.391Z,7.90
2018-05-18T10:38:23.520Z,8.43
2018-05-18T10:40:34.573Z,8.27
2018-05-18T10:42:45.813Z,7.97
2018-05-18T10:44:56.875Z,8.13
2018-05-18T10:47:07.959Z,7.20
2018-05-18T10:49:19.288Z,8.73
2018-05-18T10:51:30.280Z,8.90
2018-05-18T10:53:41.495Z,7.90
2018-05-18T10:55:52.589Z,8.17
2018-05-18T10:58:03.715Z,9.07
2018-05-18T11:00:15.013Z,8.00
2018-05-18T11:02:26.084Z,8.67
2018-05-18T11:04:37.311Z,8.60
2018-05-18T11:06:48.376Z,8.80
2018-05-18T11:08:59.413Z,8.20
2018-05-18T11:11:10.538Z,9.20
2018-05-18T11:13:21.581Z,9.23
2018-05-18T11:15:32.701Z,8.17
2018-05-18T11:17:43.899Z,8.47
2018-05-18T11:19:55.025Z,7.43
2018-05-18T11:22:06.223Z,8.43
2018-05-18T11:24:17.327Z,9.13
2018-05-18T11:26:28.425Z,9.20
2018-05-18T11:28:39.467Z,8.30
2018-05-18T11:30:51.479Z,9.17
2018-05-18T11:33:02.794Z,8.70
2018-05-18T11:35:13.967Z,9.50
2018-05-18T11:37:25.058Z,8.27
2018-05-18T11:39:36.159Z,9.23
2018-05-18T11:41:47.257Z,8.83
2018-05-18T11:43:58.327Z,8.60
2018-05-18T11:46:09.467Z,8.90
2018-05-18T11:48:20.590Z,9.10
2018-05-18T11:50:31.681Z,8.03
2018-05-18T11:52:42.743Z,8.83
2018-05-18T11:54:53.976Z,8.30
2018-05-18T11:57:05.054Z,9.50
2018-05-18T11:59:16.117Z,7.73
2018-05-18T12:01:27.246Z,9.03
2018-05-18T12:03:38.347Z,9.20
2018-05-18T12:05:49.627Z,8.07
2018-05-18T12:08:00.703Z,7.93
2018-05-18T12:10:12.046Z,9.00
2018-05-18T12:12:23.250Z,8.40
2018-05-18T12:14:34.463Z,9.60
2018-05-18T12:16:45.622Z,8.60
2018-05-18T12:18:56.706Z,7.30
2018-05-18T12:21:07.890Z,7.83
2018-05-18T12:23:18.960Z,6.47
2018-05-18T12:25:30.086Z,8.43
2018-05-18T12:27:41.142Z,8.83
2018-05-18T12:29:52.280Z,8.80
2018-05-18T12:32:03.530Z,7.13
2018-05-18T12:34:14.650Z,8.07
2018-05-18T12:36:25.789Z,7.83
2018-05-18T12:38:36.881Z,8.33
2018-05-18T12:40:47.951Z,7.77
2018-05-18T12:42:59.037Z,7.00
2018-05-18T12:45:10.198Z,8.07
2018-05-18T12:47:21.312Z,8.27
2018-05-18T12:49:32.367Z,7.47
2018-05-18T12:51:43.690Z,7.60
2018-05-18T12:53:54.799Z,6.90
2018-05-18T12:56:05.947Z,7.70
2018-05-18T12:58:17.061Z,8.33
2018-05-18T13:00:28.166Z,7.27
2018-05-18T13:02:39.267Z,9.27
2018-05-18T13:04:50.412Z,7.27
2018-05-18T13:07:01.530Z,7.83
2018-05-18T13:09:12.630Z,8.50
2018-05-18T13:11:23.844Z,8.60
2018-05-18T13:13:34.979Z,6.03
2018-05-18T13:15:46.141Z,8.10
2018-05-18T13:17:57.307Z,7.67
2018-05-18T13:20:08.461Z,7.63
2018-05-18T13:22:19.522Z,7.93
2018-05-18T13:24:30.637Z,7.93
2018-05-18T13:26:41.778Z,7.47
2018-05-18T13:28:52.868Z,7.60
2018-05-18T13:31:04.011Z,7.60
2018-05-18T13:33:15.176Z,6.37
2018-05-18T13:35:26.309Z,6.53
2018-05-18T13:37:37.374Z,8.13
2018-05-18T13:39:48.491Z,6.23
2018-05-18T13:41:59.562Z,7.43
2018-05-18T13:44:10.684Z,6.47
2018-05-18T13:46:21.760Z,7.17
2018-05-18T13:48:32.821Z,8.60
2018-05-18T13:50:43.927Z,7.20
2018-05-18T13:52:55.027Z,5.87
2018-05-18T13:55:06.242Z,6.73
2018-05-18T13:57:17.308Z,5.23
2018-05-18T13:59:28.409Z,5.53
2018-05-18T14:01:39.490Z,5.50
2018-05-18T14:03:50.552Z,5.30
2018-05-18T14:06:01.663Z,7.10
2018-05-18T14:08:12.764Z,5.70
2018-05-18T14:10:23.919Z,6.97
2018-05-18T14:12:35.008Z,6.37
2018-05-18T14:14:46.197Z,7.00
2018-05-18T14:16:57.816Z,6.97
2018-05-18T14:19:08.917Z,6.67
2018-05-18T14:21:20.157Z,6.70
2018-05-18T14:23:31.228Z,6.73
2018-05-18T14:25:42.285Z,6.77
2018-05-18T14:27:53.398Z,6.60
2018-05-18T14:30:04.479Z,6.17
2018-05-18T14:32:15.565Z,7.00
2018-05-18T14:34:26.710Z,7.17
2018-05-18T14:36:37.985Z,6.63
2018-05-18T14:38:49.054Z,5.70
2018-05-18T14:41:00.292Z,6.83
2018-05-18T14:43:11.377Z,6.97
2018-05-18T14:45:22.411Z,5.43
2018-05-18T14:47:33.523Z,7.23
2018-05-18T14:49:44.615Z,6.77
2018-05-18T14:51:55.761Z,6.90
2018-05-18T14:54:06.930Z,5.80
2018-05-18T14:56:18.186Z,6.03
2018-05-18T14:58:29.376Z,6.97
2018-05-18T15:00:40.484Z,6.70
2018-05-18T15:02:51.668Z,5.90
2018-05-18T15:05:02.730Z,5.60
2018-05-18T15:07:13.875Z,6.33
2018-05-18T15:09:24.991Z,6.57
2018-05-18T15:11:36.221Z,6.43
2018-05-18T15:13:47.323Z,6.03
2018-05-18T15:15:58.438Z,6.43
2018-05-18T15:18:09.529Z,6.20
2018-05-18T15:20:20.682Z,5.93
2018-05-18T15:22:31.834Z,5.63
2018-05-18T15:24:42.933Z,6.57
2018-05-18T15:26:54.055Z,5.57
2018-05-18T15:29:05.150Z,4.60
2018-05-18T15:31:16.340Z,5.30
2018-05-18T15:33:27.483Z,5.17
2018-05-18T15:35:38.586Z,5.40
2018-05-18T15:37:49.649Z,4.90
2018-05-18T15:40:00.804Z,5.40
2018-05-18T15:42:11.919Z,5.37
2018-05-18T15:44:23.035Z,5.20
2018-05-18T15:46:34.134Z,5.23
2018-05-18T15:48:45.197Z,4.80
2018-05-18T15:50:56.342Z,5.13
2018-05-18T15:53:07.427Z,5.77
2018-05-18T15:55:18.558Z,5.60
2018-05-18T15:57:29.641Z,5.63
2018-05-18T15:59:40.863Z,5.90
2018-05-18T16:01:52.022Z,5.00
2018-05-18T16:04:03.102Z,4.83
2018-05-18T16:06:15.217Z,5.00
2018-05-18T16:08:26.464Z,5.37
2018-05-18T16:10:37.566Z,5.83
2018-05-18T16:12:48.804Z,5.57
2018-05-18T16:14:59.898Z,5.70
2018-05-18T16:17:11.014Z,6.10
2018-05-18T16:19:22.164Z,5.73
2018-05-18T16:21:33.262Z,5.83
2018-05-18T16:23:44.455Z,5.17
2018-05-18T16:25:55.538Z,5.77
2018-05-18T16:28:06.725Z,5.00
2018-05-18T16:30:17.826Z,5.60
2018-05-18T16:32:29.115Z,5.70
2018-05-18T16:34:40.201Z,5.20
2018-05-18T16:36:51.291Z,5.40
2018-05-18T16:39:02.366Z,5.63
2018-05-18T16:41:13.462Z,6.00
2018-05-18T16:43:24.766Z,5.97
2018-05-18T16:45:35.835Z,6.37
2018-05-18T16:47:46.921Z,5.90
2018-05-18T16:49:58.019Z,6.10
2018-05-18T16:52:09.122Z,5.93
2018-05-18T16:54:20.276Z,5.30
2018-05-18T16:56:31.357Z,5.87
2018-05-18T16:58:42.423Z,5.87
2018-05-18T17:00:53.543Z,4.87
2018-05-18T17:03:04.672Z,5.43
2018-05-18T17:05:15.772Z,4.80
2018-05-18T17:07:27.050Z,5.70
2018-05-18T17:09:38.232Z,4.67
2018-05-18T17:11:49.369Z,5.83
2018-05-18T17:14:00.477Z,5.30
2018-05-18T17:16:11.602Z,5.57
2018-05-18T17:18:22.681Z,5.50
2018-05-18T17:20:33.757Z,4.77
2018-05-18T17:22:45.046Z,6.70
2018-05-18T17:24:56.221Z,6.30
2018-05-18T17:27:07.386Z,5.53
2018-05-18T17:29:18.513Z,5.40
2018-05-18T17:31:29.613Z,5.17
2018-05-18T17:33:40.766Z,5.83
2018-05-18T17:35:51.885Z,6.07
2018-05-18T17:38:02.962Z,5.77
2018-05-18T17:40:14.078Z,5.50
2018-05-18T17:42:25.190Z,4.50
2018-05-18T17:44:36.287Z,4.87
2018-05-18T17:46:47.362Z,4.77
2018-05-18T17:48:58.600Z,5.57
2018-05-18T17:51:09.800Z,5.33
2018-05-18T17:53:21.712Z,4.07
2018-05-18T17:55:32.918Z,4.70
2018-05-18T17:57:44.014Z,5.03
2018-05-18T17:59:55.130Z,5.20
2018-05-18T18:02:06.239Z,6.10
2018-05-18T18:04:17.466Z,5.17
2018-05-18T18:06:28.564Z,6.07
2018-05-18T18:08:39.667Z,6.10
2018-05-18T18:10:50.773Z,7.50
2018-05-18T18:13:01.854Z,6.03
2018-05-18T18:15:13.003Z,6.37
2018-05-18T18:17:24.107Z,6.47
2018-05-18T18:19:35.234Z,6.70
2018-05-18T18:21:46.345Z,6.07
2018-05-18T18:23:57.502Z,6.37
2018-05-18T18:26:08.615Z,6.30
2018-05-18T18:28:19.732Z,5.83
2018-05-18T18:30:30.829Z,8.87
2018-05-18T18:32:41.971Z,6.93
2018-05-18T18:34:53.047Z,7.27
2018-05-18T18:37:04.203Z,8.57
2018-05-18T18:39:15.406Z,10.23
2018-05-18T18:41:26.462Z,10.00
2018-05-18T18:43:37.599Z,10.17
2018-05-18T18:45:48.611Z,9.30
2018-05-18T18:47:59.733Z,10.33
2018-05-18T18:50:10.832Z,10.47
2018-05-18T18:52:21.871Z,9.80
2018-05-18T18:54:33.010Z,9.33
2018-05-18T18:56:44.100Z,9.63
2018-05-18T18:58:55.503Z,9.03
2018-05-18T19:01:06.620Z,9.80
2018-05-18T19:03:17.721Z,10.93
2018-05-18T19:05:28.807Z,10.40
2018-05-18T19:07:39.885Z,9.43
2018-05-18T19:09:51.007Z,9.23
2018-05-18T19:12:02.930Z,8.97
2018-05-18T19:14:14.094Z,9.03
2018-05-18T19:16:25.223Z,10.20
2018-05-18T19:18:36.326Z,9.43
2018-05-18T19:20:51.332Z,10.87
2018-05-18T19:23:02.456Z,9.80
2018-05-18T19:25:13.595Z,9.97
2018-05-18T19:27:25.240Z,11.33
2018-05-18T19:29:36.448Z,11.40
2018-05-18T19:31:47.548Z,11.33
2018-05-18T19:33:58.615Z,11.27
2018-05-18T19:36:09.793Z,11.33
2018-05-18T19:38:20.877Z,10.77
2018-05-18T19:40:31.963Z,7.67
2018-05-18T19:42:43.802Z,10.23
2018-05-18T19:44:55.514Z,11.07
2018-05-18T19:47:06.678Z,11.23
2018-05-18T19:49:18.487Z,13.37
2018-05-18T19:51:31.228Z,14.17
2018-05-18T19:53:43.011Z,14.20
2018-05-18T19:55:54.134Z,13.70
2018-05-18T19:58:05.308Z,13.30
2018-05-18T20:00:16.407Z,13.07
2018-05-18T20:02:27.616Z,13.33
2018-05-18T20:04:38.706Z,12.43
2018-05-18T20:06:49.859Z,10.60
2018-05-18T20:09:00.958Z,10.40
2018-05-18T20:11:12.067Z,9.50
2018-05-18T20:13:23.191Z,10.87
2018-05-18T20:15:34.290Z,10.87
2018-05-18T20:17:45.641Z,10.40
2018-05-18T20:19:56.716Z,10.97
2018-05-18T20:22:07.839Z,10.07
2018-05-18T20:24:18.900Z,11.40
2018-05-18T20:26:29.999Z,10.90
2018-05-18T20:28:41.164Z,10.00
2018-05-18T20:30:52.222Z,10.17
2018-05-18T20:33:03.299Z,11.00
2018-05-18T20:35:14.404Z,11.63
2018-05-18T20:37:25.678Z,10.73
2018-05-18T20:39:36.774Z,10.90
2018-05-18T20:41:47.954Z,12.00
2018-05-18T20:43:59.062Z,11.70
2018-05-18T20:46:10.121Z,15.90
2018-05-18T20:48:21.221Z,11.57
2018-05-18T20:50:32.346Z,11.23
2018-05-18T20:52:43.530Z,10.70
2018-05-18T20:54:54.655Z,11.83
2018-05-18T20:57:05.813Z,11.67
2018-05-18T20:59:16.939Z,11.43
2018-05-18T21:01:28.117Z,9.23
2018-05-18T21:03:39.231Z,12.03
2018-05-18T21:05:50.339Z,11.27
2018-05-18T21:08:01.435Z,13.07
2018-05-18T21:10:12.563Z,12.00
2018-05-18T21:12:23.696Z,12.80
2018-05-18T21:14:34.807Z,12.57
2018-05-18T21:16:46.027Z,13.03
2018-05-18T21:18:57.199Z,12.40
2018-05-18T21:21:08.369Z,12.23
2018-05-18T21:23:19.479Z,11.57
2018-05-18T21:25:30.678Z,12.40
2018-05-18T21:27:41.756Z,12.27
2018-05-18T21:29:52.823Z,12.07
2018-05-18T21:32:03.959Z,11.67
2018-05-18T21:34:15.062Z,12.00
2018-05-18T21:36:26.323Z,11.73
2018-05-18T21:38:37.451Z,11.93
2018-05-18T21:40:48.583Z,11.90
2018-05-18T21:42:59.714Z,11.47
2018-05-18T21:45:10.851Z,12.23
2018-05-18T21:47:22.135Z,11.60
2018-05-18T21:49:33.200Z,9.30
2018-05-18T21:51:44.304Z,11.90
2018-05-18T21:53:55.373Z,12.70
2018-05-18T21:56:06.521Z,12.23
2018-05-18T21:58:17.726Z,12.50
2018-05-18T22:00:28.782Z,12.43
2018-05-18T22:02:39.966Z,11.23
2018-05-18T22:04:51.050Z,12.10
2018-05-18T22:07:02.269Z,12.00
2018-05-18T22:09:13.419Z,13.13
2018-05-18T22:11:24.537Z,13.17
2018-05-18T22:13:35.630Z,12.37
2018-05-18T22:15:46.746Z,12.20
2018-05-18T22:17:57.968Z,11.87
2018-05-18T22:20:09.050Z,12.17
2018-05-18T22:22:20.127Z,12.70
2018-05-18T22:24:31.347Z,12.43
2018-05-18T22:26:42.546Z,13.67
2018-05-18T22:28:53.642Z,14.37
2018-05-18T22:31:04.727Z,13.13
2018-05-18T22:33:15.815Z,12.40
2018-05-18T22:35:26.966Z,12.50
2018-05-18T22:37:38.058Z,12.70
2018-05-18T22:39:49.151Z,12.33
2018-05-18T22:42:00.369Z,12.23
2018-05-18T22:44:11.478Z,12.23
2018-05-18T22:46:22.567Z,12.70
2018-05-18T22:48:33.647Z,12.77
2018-05-18T22:50:44.757Z,12.30
2018-05-18T22:52:55.848Z,12.77
2018-05-18T22:55:06.938Z,13.10
2018-05-18T22:57:18.238Z,11.87
2018-05-18T22:59:29.381Z,11.93
2018-05-18T23:01:40.612Z,12.33
2018-05-18T23:03:51.694Z,11.00
2018-05-18T23:06:02.814Z,11.97
2018-05-18T23:08:13.892Z,10.93
2018-05-18T23:10:24.989Z,12.60
2018-05-18T23:12:36.083Z,11.80
2018-05-18T23:14:47.153Z,12.70
2018-05-18T23:16:58.251Z,11.20
2018-05-18T23:19:09.435Z,12.07
2018-05-18T23:21:20.637Z,13.07
2018-05-18T23:23:31.679Z,11.13
2018-05-18T23:25:42.776Z,12.23
2018-05-18T23:27:54.020Z,12.13
2018-05-18T23:30:05.084Z,12.60
2018-05-18T23:32:16.158Z,12.50
2018-05-18T23:34:27.234Z,12.97
2018-05-18T23:36:38.374Z,12.57
2018-05-18T23:38:49.509Z,12.70
2018-05-18T23:41:00.748Z,12.47
2018-05-18T23:43:11.858Z,12.97
2018-05-18T23:45:23.004Z,12.33
2018-05-18T23:47:34.083Z,12.83
2018-05-18T23:49:45.189Z,12.73
2018-05-18T23:51:56.321Z,13.47
2018-05-18T23:54:07.403Z,10.93
2018-05-18T23:56:18.604Z,12.33
2018-05-18T23:58:29.673Z,12.23
